Wetterdaten: Woche 11.09.06 - 17.09.06 (KW37)
Datum Zeit Temperatur Luftfeuchte Luftdruck Niederschlag Windrichtung Wind
11.09.2006 00:00 15,4 C 98 % 1023 hPa 0,0 l/m N 0,0 km/h (0 Bft)
11.09.2006 01:00 14,7 C 99 % 1023 hPa 0,0 l/m N 0,0 km/h (0 Bft)
11.09.2006 02:00 14,2 C 100 % 1023 hPa 0,0 l/m N 0,0 km/h (0 Bft)
11.09.2006 03:00 14,3 C 100 % 1023 hPa 0,0 l/m N 0,0 km/h (0 Bft)
11.09.2006 04:00 14,4 C 100 % 1023 hPa 0,0 l/m N 0,0 km/h (0 Bft)
11.09.2006 05:00 14,0 C 100 % 1023 hPa 0,0 l/m N 0,0 km/h (0 Bft)
11.09.2006 06:00 13,7 C 100 % 1022 hPa 0,0 l/m N-NO 0,3 km/h (0 Bft)
11.09.2006 07:00 13,7 C 100 % 1022 hPa 0,0 l/m NW 0,6 km/h (0 Bft)
11.09.2006 08:00 14,9 C 100 % 1023 hPa 0,0 l/m N 0,0 km/h (0 Bft)
11.09.2006 09:00 16,5 C 99 % 1022 hPa 0,0 l/m O 0,9 km/h (0 Bft)
11.09.2006 10:00 19,7 C 83 % 1023 hPa 0,0 l/m O-NO 0,7 km/h (0 Bft)
11.09.2006 11:00 22,1 C 69 % 1022 hPa 0,0 l/m S-SO 3,0 km/h (1 Bft)
11.09.2006 12:00 22,8 C 60 % 1022 hPa 0,0 l/m O 4,1 km/h (1 Bft)
11.09.2006 13:00 24,4 C 54 % 1022 hPa 0,0 l/m O-NO 3,8 km/h (1 Bft)
11.09.2006 14:00 25,1 C 53 % 1021 hPa 0,0 l/m O-NO 3,4 km/h (1 Bft)
11.09.2006 15:00 25,4 C 52 % 1021 hPa 0,0 l/m O-NO 6,6 km/h (2 Bft)
11.09.2006 16:00 25,1 C 52 % 1020 hPa 0,0 l/m O 5,1 km/h (1 Bft)
11.09.2006 17:00 24,8 C 53 % 1019 hPa 0,0 l/m O-NO 8,2 km/h (2 Bft)
11.09.2006 18:00 23,8 C 59 % 1019 hPa 0,0 l/m O-NO 3,2 km/h (1 Bft)
11.09.2006 19:00 21,5 C 72 % 1019 hPa 0,0 l/m N 0,0 km/h (0 Bft)
11.09.2006 20:00 19,4 C 82 % 1020 hPa 0,0 l/m NW 0,3 km/h (0 Bft)
11.09.2006 21:00 18,5 C 87 % 1020 hPa 0,0 l/m S 0,3 km/h (0 Bft)
11.09.2006 22:00 17,8 C 90 % 1020 hPa 0,0 l/m N 0,0 km/h (0 Bft)
11.09.2006 23:00 17,4 C 84 % 1021 hPa 0,0 l/m W-SW 0,9 km/h (0 Bft)
12.09.2006 00:00 17,4 C 77 % 1020 hPa 0,0 l/m NW 5,2 km/h (1 Bft)
12.09.2006 01:00 17,1 C 81 % 1020 hPa 0,0 l/m S 4,0 km/h (1 Bft)
12.09.2006 02:00 16,5 C 82 % 1020 hPa 0,0 l/m SW 0,5 km/h (0 Bft)
12.09.2006 03:00 15,4 C 87 % 1020 hPa 0,0 l/m W-NW 0,3 km/h (0 Bft)
12.09.2006 04:00 14,1 C 93 % 1020 hPa 0,0 l/m N 0,0 km/h (0 Bft)
12.09.2006 05:00 13,4 C 96 % 1019 hPa 0,0 l/m N 0,0 km/h (0 Bft)
12.09.2006 06:00 12,7 C 98 % 1019 hPa 0,0 l/m N 0,0 km/h (0 Bft)
12.09.2006 07:00 12,4 C 99 % 1019 hPa 0,0 l/m N 0,0 km/h (0 Bft)
12.09.2006 08:00 13,5 C 100 % 1020 hPa 0,0 l/m N 0,0 km/h (0 Bft)
12.09.2006 09:00 15,7 C 96 % 1020 hPa 0,0 l/m NO 1,1 km/h (0 Bft)
12.09.2006 10:00 18,8 C 74 % 1020 hPa 0,0 l/m S-SO 7,4 km/h (2 Bft)
12.09.2006 11:00 20,8 C 66 % 1020 hPa 0,0 l/m SO 8,0 km/h (2 Bft)
12.09.2006 12:00 22,3 C 62 % 1020 hPa 0,0 l/m S 8,2 km/h (2 Bft)
12.09.2006 13:00 24,1 C 56 % 1019 hPa 0,0 l/m S 7,6 km/h (2 Bft)
12.09.2006 14:00 25,5 C 51 % 1019 hPa 0,0 l/m S 8,0 km/h (2 Bft)
12.09.2006 15:00 25,9 C 46 % 1019 hPa 0,0 l/m O-SO 4,9 km/h (1 Bft)
12.09.2006 16:00 24,6 C 45 % 1018 hPa 0,0 l/m SO 4,7 km/h (1 Bft)
12.09.2006 17:00 24,1 C 45 % 1018 hPa 0,0 l/m O-NO 1,4 km/h (1 Bft)
12.09.2006 18:00 23,5 C 53 % 1018 hPa 0,0 l/m N 0,0 km/h (0 Bft)
12.09.2006 19:00 20,0 C 67 % 1018 hPa 0,0 l/m W 0,3 km/h (0 Bft)
12.09.2006 20:00 18,2 C 76 % 1018 hPa 0,0 l/m N 0,0 km/h (0 Bft)
12.09.2006 21:00 16,7 C 83 % 1018 hPa 0,0 l/m O 0,3 km/h (0 Bft)
12.09.2006 22:00 15,8 C 91 % 1018 hPa 0,0 l/m N 0,0 km/h (0 Bft)
12.09.2006 23:00 15,1 C 94 % 1018 hPa 0,0 l/m N 0,0 km/h (0 Bft)
13.09.2006 00:00 14,4 C 97 % 1018 hPa 0,0 l/m N 0,0 km/h (0 Bft)
13.09.2006 01:00 13,9 C 98 % 1018 hPa 0,0 l/m N 0,0 km/h (0 Bft)
13.09.2006 02:00 13,3 C 99 % 1018 hPa 0,0 l/m N 0,0 km/h (0 Bft)
13.09.2006 03:00 12,9 C 100 % 1018 hPa 0,0 l/m N 0,0 km/h (0 Bft)
13.09.2006 04:00 12,4 C 100 % 1017 hPa 0,0 l/m N 0,0 km/h (0 Bft)
13.09.2006 05:00 12,0 C 100 % 1017 hPa 0,0 l/m N 0,0 km/h (0 Bft)
13.09.2006 06:00 11,5 C 100 % 1018 hPa 0,0 l/m N 0,0 km/h (0 Bft)
13.09.2006 07:00 11,1 C 100 % 1018 hPa 0,0 l/m N 0,0 km/h (0 Bft)
13.09.2006 08:00 12,0 C 100 % 1018 hPa 0,0 l/m N 0,0 km/h (0 Bft)
13.09.2006 09:00 13,8 C 100 % 1018 hPa 0,0 l/m O 2,6 km/h (1 Bft)
13.09.2006 10:00 16,7 C 96 % 1018 hPa 0,0 l/m O 3,0 km/h (1 Bft)
13.09.2006 11:00 19,9 C 76 % 1018 hPa 0,0 l/m S 2,2 km/h (1 Bft)
13.09.2006 12:00 21,5 C 70 % 1018 hPa 0,0 l/m O 4,5 km/h (1 Bft)
13.09.2006 13:00 23,8 C 59 % 1017 hPa 0,0 l/m O-NO 6,4 km/h (2 Bft)
13.09.2006 14:00 25,2 C 50 % 1017 hPa 0,0 l/m O 5,7 km/h (1 Bft)
13.09.2006 15:00 25,4 C 46 % 1016 hPa 0,0 l/m O 6,8 km/h (2 Bft)
13.09.2006 16:00 24,6 C 46 % 1015 hPa 0,0 l/m O 6,6 km/h (2 Bft)
13.09.2006 17:00 24,3 C 45 % 1014 hPa 0,0 l/m O-NO 7,0 km/h (2 Bft)
13.09.2006 18:00 23,8 C 45 % 1014 hPa 0,0 l/m O-NO 8,4 km/h (2 Bft)
13.09.2006 19:00 21,5 C 51 % 1014 hPa 0,0 l/m O-NO 1,4 km/h (1 Bft)
13.09.2006 20:00 18,2 C 67 % 1014 hPa 0,0 l/m N 0,0 km/h (0 Bft)
13.09.2006 21:00 16,7 C 72 % 1014 hPa 0,0 l/m W-NW 1,6 km/h (1 Bft)
13.09.2006 22:00 16,1 C 72 % 1014 hPa 0,0 l/m W-NW 4,0 km/h (1 Bft)
13.09.2006 23:00 15,4 C 75 % 1013 hPa 0,0 l/m W-NW 2,6 km/h (1 Bft)
14.09.2006 00:00 14,5 C 80 % 1013 hPa 0,0 l/m W-NW 1,5 km/h (1 Bft)
14.09.2006 01:00 13,6 C 85 % 1013 hPa 0,0 l/m N 0,1 km/h (0 Bft)
14.09.2006 02:00 12,7 C 90 % 1012 hPa 0,0 l/m N 0,0 km/h (0 Bft)
14.09.2006 03:00 12,0 C 95 % 1012 hPa 0,0 l/m W-NW 1,1 km/h (1 Bft)
14.09.2006 04:00 11,7 C 96 % 1012 hPa 0,0 l/m N 0,0 km/h (0 Bft)
14.09.2006 05:00 11,4 C 97 % 1011 hPa 0,0 l/m N 0,0 km/h (0 Bft)
14.09.2006 06:00 11,0 C 97 % 1011 hPa 0,0 l/m N 0,0 km/h (0 Bft)
14.09.2006 07:00 10,8 C 99 % 1011 hPa 0,0 l/m W-NW 0,5 km/h (0 Bft)
14.09.2006 08:00 11,9 C 99 % 1011 hPa 0,0 l/m NW 0,5 km/h (0 Bft)
14.09.2006 09:00 14,3 C 89 % 1011 hPa 0,0 l/m N-NO 1,1 km/h (1 Bft)
14.09.2006 10:00 17,5 C 76 % 1011 hPa 0,0 l/m N 1,4 km/h (1 Bft)
14.09.2006 11:00 21,4 C 55 % 1010 hPa 0,0 l/m N-NO 5,0 km/h (1 Bft)
14.09.2006 12:00 22,2 C 49 % 1010 hPa 0,0 l/m N-NO 4,2 km/h (1 Bft)
14.09.2006 13:00 22,2 C 57 % 1009 hPa 0,0 l/m N 1,0 km/h (0 Bft)
14.09.2006 14:00 23,8 C 51 % 1009 hPa 0,0 l/m N-NO 6,6 km/h (2 Bft)
14.09.2006 15:00 24,7 C 48 % 1008 hPa 0,0 l/m O 8,9 km/h (2 Bft)
14.09.2006 16:00 24,5 C 48 % 1008 hPa 0,0 l/m O-NO 10,2 km/h (2 Bft)
14.09.2006 17:00 24,0 C 50 % 1007 hPa 0,0 l/m O-NO 7,5 km/h (2 Bft)
14.09.2006 18:00 22,7 C 54 % 1007 hPa 0,0 l/m NO 2,6 km/h (1 Bft)
14.09.2006 19:00 20,8 C 64 % 1007 hPa 0,0 l/m N 0,1 km/h (0 Bft)
14.09.2006 20:00 19,2 C 70 % 1007 hPa 0,0 l/m N 0,0 km/h (0 Bft)
14.09.2006 21:00 18,0 C 76 % 1007 hPa 0,0 l/m N 0,0 km/h (0 Bft)
14.09.2006 22:00 17,3 C 81 % 1006 hPa 0,0 l/m W-NW 3,1 km/h (1 Bft)
14.09.2006 23:00 16,6 C 84 % 1006 hPa 0,0 l/m W-NW 3,4 km/h (1 Bft)
15.09.2006 00:00 15,9 C 87 % 1006 hPa 0,0 l/m W-NW 4,2 km/h (1 Bft)
15.09.2006 01:00 15,4 C 89 % 1005 hPa 0,0 l/m W-NW 3,2 km/h (1 Bft)
15.09.2006 02:00 15,1 C 89 % 1005 hPa 0,0 l/m NW 5,2 km/h (1 Bft)
15.09.2006 03:00 14,5 C 92 % 1004 hPa 0,0 l/m NW 1,7 km/h (1 Bft)
15.09.2006 04:00 14,2 C 94 % 1004 hPa 0,0 l/m NW 1,8 km/h (1 Bft)
15.09.2006 05:00 14,0 C 93 % 1004 hPa 0,0 l/m NW 4,9 km/h (1 Bft)
15.09.2006 06:00 13,6 C 95 % 1003 hPa 0,0 l/m NW 3,7 km/h (1 Bft)
15.09.2006 07:00 13,5 C 97 % 1003 hPa 0,0 l/m NW 4,9 km/h (1 Bft)
15.09.2006 08:00 13,6 C 99 % 1003 hPa 0,0 l/m N-NW 5,3 km/h (1 Bft)
15.09.2006 09:00 13,8 C 99 % 1003 hPa 0,0 l/m NW 5,1 km/h (1 Bft)
15.09.2006 10:00 14,1 C 99 % 1003 hPa 0,0 l/m N-NW 6,2 km/h (2 Bft)
15.09.2006 11:00 14,6 C 98 % 1003 hPa 0,0 l/m N 5,1 km/h (1 Bft)
15.09.2006 12:00 15,6 C 93 % 1003 hPa 0,0 l/m N 9,7 km/h (2 Bft)
15.09.2006 13:00 17,6 C 80 % 1003 hPa 0,0 l/m N-NO 10,7 km/h (2 Bft)
15.09.2006 14:00 18,3 C 73 % 1003 hPa 0,0 l/m NO 9,5 km/h (2 Bft)
15.09.2006 15:00 19,0 C 70 % 1003 hPa 0,0 l/m O-NO 10,3 km/h (2 Bft)
15.09.2006 16:00 18,9 C 71 % 1003 hPa 0,0 l/m O-NO 8,4 km/h (2 Bft)
15.09.2006 17:00 18,5 C 73 % 1003 hPa 0,0 l/m N-NO 5,8 km/h (2 Bft)
15.09.2006 18:00 17,9 C 77 % 1004 hPa 0,0 l/m N-NW 3,5 km/h (1 Bft)
15.09.2006 19:00 16,8 C 84 % 1004 hPa 0,0 l/m NW 0,6 km/h (0 Bft)
15.09.2006 20:00 15,8 C 92 % 1007 hPa 0,0 l/m W 0,6 km/h (0 Bft)
15.09.2006 21:00 15,1 C 95 % 1007 hPa 0,0 l/m W-NW 0,3 km/h (0 Bft)
15.09.2006 22:00 14,6 C 98 % 1008 hPa 0,0 l/m W 1,0 km/h (0 Bft)
15.09.2006 23:00 14,0 C 99 % 1009 hPa 0,0 l/m S 0,3 km/h (0 Bft)
16.09.2006 00:00 13,2 C 100 % 1009 hPa 0,0 l/m N 0,0 km/h (0 Bft)
16.09.2006 01:00 12,6 C 100 % 1009 hPa 0,0 l/m N 0,0 km/h (0 Bft)
16.09.2006 02:00 12,2 C 100 % 1009 hPa 0,0 l/m W-NW 0,2 km/h (0 Bft)
16.09.2006 03:00 11,8 C 100 % 1009 hPa 0,0 l/m S 1,2 km/h (1 Bft)
16.09.2006 04:00 11,6 C 100 % 1010 hPa 0,0 l/m N 0,1 km/h (0 Bft)
16.09.2006 05:00 11,4 C 100 % 1010 hPa 0,0 l/m W-SW 0,7 km/h (0 Bft)
16.09.2006 06:00 11,2 C 100 % 1010 hPa 0,0 l/m N-NO 1,2 km/h (1 Bft)
16.09.2006 07:00 10,6 C 100 % 1010 hPa 0,0 l/m NW 0,3 km/h (0 Bft)
16.09.2006 08:00 10,7 C 100 % 1011 hPa 0,0 l/m NW 3,3 km/h (1 Bft)
16.09.2006 09:00 12,6 C 100 % 1011 hPa 0,0 l/m N 0,1 km/h (0 Bft)
16.09.2006 10:00 15,0 C 98 % 1011 hPa 0,0 l/m N-NO 2,0 km/h (1 Bft)
16.09.2006 11:00 16,3 C 92 % 1011 hPa 0,0 l/m NW 5,5 km/h (1 Bft)
16.09.2006 12:00 17,5 C 86 % 1011 hPa 0,0 l/m NW 0,5 km/h (0 Bft)
16.09.2006 13:00 19,8 C 73 % 1011 hPa 0,0 l/m N 0,1 km/h (0 Bft)
16.09.2006 14:00 21,5 C 63 % 1011 hPa 0,0 l/m N 2,3 km/h (1 Bft)
16.09.2006 15:00 22,5 C 54 % 1011 hPa 0,0 l/m N-NO 6,9 km/h (2 Bft)
16.09.2006 16:00 21,7 C 54 % 1010 hPa 0,0 l/m N-NO 8,6 km/h (2 Bft)
16.09.2006 17:00 21,5 C 62 % 1010 hPa 0,0 l/m N 9,1 km/h (2 Bft)
16.09.2006 18:00 21,4 C 68 % 1011 hPa 0,0 l/m N-NO 7,3 km/h (2 Bft)
16.09.2006 19:00 20,2 C 76 % 1011 hPa 0,0 l/m N-NW 2,8 km/h (1 Bft)
16.09.2006 20:00 18,9 C 82 % 1011 hPa 0,0 l/m N-NW 4,6 km/h (1 Bft)
16.09.2006 21:00 18,0 C 85 % 1011 hPa 0,0 l/m N-NW 2,2 km/h (1 Bft)
16.09.2006 22:00 17,4 C 90 % 1011 hPa 0,0 l/m NW 1,7 km/h (1 Bft)
16.09.2006 23:00 17,0 C 92 % 1011 hPa 0,0 l/m W-NW 3,8 km/h (1 Bft)
17.09.2006 00:00 16,7 C 93 % 1011 hPa 0,0 l/m NW 3,8 km/h (1 Bft)
17.09.2006 01:00 16,4 C 95 % 1010 hPa 0,0 l/m N-NW 7,1 km/h (2 Bft)
17.09.2006 02:00 16,2 C 96 % 1010 hPa 0,0 l/m NW 7,9 km/h (2 Bft)
17.09.2006 03:00 15,9 C 96 % 1010 hPa 0,0 l/m NW 8,6 km/h (2 Bft)
17.09.2006 04:00 15,8 C 97 % 1009 hPa 0,0 l/m N-NW 9,4 km/h (2 Bft)
17.09.2006 05:00 15,5 C 99 % 1009 hPa 0,0 l/m N 10,6 km/h (2 Bft)
17.09.2006 06:00 15,2 C 100 % 1009 hPa 0,0 l/m N 9,3 km/h (2 Bft)
17.09.2006 07:00 14,9 C 100 % 1010 hPa 1,0 l/m N 7,5 km/h (2 Bft)
17.09.2006 08:00 14,8 C 100 % 1010 hPa 0,0 l/m N 4,4 km/h (1 Bft)
17.09.2006 09:00 15,0 C 100 % 1010 hPa 0,0 l/m N 4,5 km/h (1 Bft)
17.09.2006 10:00 15,2 C 100 % 1011 hPa 0,0 l/m N 0,3 km/h (0 Bft)
17.09.2006 11:00 15,4 C 99 % 1011 hPa 0,0 l/m N 0,2 km/h (0 Bft)
17.09.2006 12:00 15,8 C 96 % 1011 hPa 0,0 l/m S 9,7 km/h (2 Bft)
17.09.2006 13:00 15,8 C 96 % 1011 hPa 0,0 l/m S 7,4 km/h (2 Bft)
17.09.2006 14:00 16,1 C 95 % 1011 hPa 0,0 l/m S 7,3 km/h (2 Bft)
17.09.2006 15:00 16,9 C 92 % 1011 hPa 0,0 l/m S 4,3 km/h (1 Bft)
17.09.2006 16:00 17,4 C 88 % 1011 hPa 0,0 l/m S 7,3 km/h (2 Bft)
17.09.2006 17:00 17,3 C 90 % 1011 hPa 0,0 l/m S 5,6 km/h (1 Bft)
17.09.2006 18:00 16,7 C 93 % 1012 hPa 0,0 l/m S 6,7 km/h (2 Bft)
17.09.2006 19:00 15,9 C 98 % 1012 hPa 0,0 l/m S 7,8 km/h (2 Bft)
17.09.2006 20:00 15,5 C 100 % 1013 hPa 0,0 l/m S 4,3 km/h (1 Bft)
17.09.2006 21:00 15,3 C 99 % 1013 hPa 0,0 l/m S-SW 3,0 km/h (1 Bft)
17.09.2006 22:00 15,3 C 99 % 1013 hPa 0,0 l/m S 2,2 km/h (1 Bft)
17.09.2006 23:00 15,0 C 100 % 1013 hPa 0,0 l/m S 5,0 km/h (1 Bft)
Min-Datum _ 16.09.06 13.09.06 15.09.06 - - 11.09.06
_ Min-Zeit 07:47 17:57 08:49 - - 00:00
Minimum _ 10,4 C 42 % 1002 hPa - - 0,0 km/h (0 Bft)
Max-Datum _ 12.09.06 11.09.06 11.09.06 17.09.06 - 17.09.06
_ Max-Zeit 15:29 02:09 00:00 07:59 - 06:04
Maximum _ 26,1 C 100 % 1023 hPa 1,0 l/m - 21,2 km/h
N (4 Bft)
Durchschnitt _ 17,1 C 83 % 1013 hPa #1,0 l/m N 3,2 km/h (1 Bft)

Durchschnitt Minimum Temp.16,7 C
Durchschnitt Maximum Temp.17,6 C